Time;durP1;ratioP1;P1;durP2;ratioP2;P2;SDS_P1;SDS_P2;PMS_P1;PMS_P2;Temp;Humidity;BMP_temperature;BMP_pressure;BME280_temperature;BME280_humidity;BME280_pressure;Samples;Min_cycle;Max_cycle;Signal;HPM_P1;HPM_P2
2022/03/17 00:00:01;;;;;;;57.77;35.03;;;;;;;5.76;100.00;100171.28;5091359;28;20199;-47
2022/03/17 00:02:28;;;;;;;56.67;33.90;;;;;;;5.73;100.00;100167.03;5091517;28;20286;-48
2022/03/17 00:04:55;;;;;;;56.50;34.83;;;;;;;5.79;100.00;100168.72;5091542;28;20204;-48
2022/03/17 00:07:22;;;;;;;59.50;34.33;;;;;;;5.66;100.00;100146.38;5090607;28;20581;-49
2022/03/17 00:09:49;;;;;;;59.47;35.13;;;;;;;5.74;100.00;100170.47;5091136;28;20200;-49
2022/03/17 00:12:18;;;;;;;52.03;33.13;;;;;;;5.71;100.00;100166.16;5091443;28;20544;-48
2022/03/17 00:14:45;;;;;;;58.50;33.43;;;;;;;5.74;100.00;100170.47;5091213;28;20197;-49
2022/03/17 00:17:12;;;;;;;51.00;31.40;;;;;;;5.64;100.00;100171.31;5091250;28;20287;-49
2022/03/17 00:19:39;;;;;;;55.73;32.63;;;;;;;5.64;100.00;100176.47;5091032;28;20569;-48
2022/03/17 00:22:09;;;;;;;57.63;33.90;;;;;;;5.44;100.00;100166.09;5091315;28;20204;-48
2022/03/17 00:24:37;;;;;;;50.47;30.53;;;;;;;5.59;100.00;100171.28;5090880;28;20235;-49
2022/03/17 00:27:08;;;;;;;56.47;32.07;;;;;;;5.50;100.00;100158.41;5091204;28;20272;-49
2022/03/17 00:29:37;;;;;;;47.57;30.40;;;;;;;5.50;100.00;100160.97;5091175;28;20669;-49
2022/03/17 00:32:06;;;;;;;48.47;30.03;;;;;;;5.46;100.00;100182.41;5090913;28;20297;-50
2022/03/17 00:34:34;;;;;;;44.33;28.00;;;;;;;5.47;100.00;100184.13;5090759;28;20191;-48
2022/03/17 00:37:01;;;;;;;43.90;27.70;;;;;;;5.56;100.00;100189.28;5090913;28;20209;-49
2022/03/17 00:39:29;;;;;;;48.70;28.37;;;;;;;5.56;100.00;100184.16;5091005;28;20218;-49
2022/03/17 00:41:56;;;;;;;48.00;29.43;;;;;;;5.48;100.00;100180.69;5090664;28;20260;-49
2022/03/17 00:44:23;;;;;;;43.23;26.53;;;;;;;5.62;100.00;100191.03;5090944;28;20203;-49
2022/03/17 00:46:51;;;;;;;44.00;27.97;;;;;;;5.58;100.00;100192.75;5091163;28;20196;-49
2022/03/17 00:49:18;;;;;;;42.70;26.93;;;;;;;5.68;100.00;100191.03;5090581;28;20201;-49
2022/03/17 00:51:45;;;;;;;38.63;24.30;;;;;;;5.54;100.00;100191.00;5090780;28;20199;-48
2022/03/17 00:54:12;;;;;;;42.33;26.10;;;;;;;5.51;100.00;100185.88;5090561;28;20202;-49
2022/03/17 00:56:38;;;;;;;41.37;26.67;;;;;;;5.47;100.00;100190.13;5090536;28;20199;-48
2022/03/17 00:59:05;;;;;;;38.30;24.93;;;;;;;5.54;100.00;100191.00;5090568;28;20230;-47
2022/03/17 01:01:32;;;;;;;38.27;24.50;;;;;;;5.66;100.00;100196.19;5090553;28;20206;-49
2022/03/17 01:04:00;;;;;;;35.17;24.50;;;;;;;5.58;100.00;100176.44;5090882;28;20642;-49
2022/03/17 01:06:27;;;;;;;41.07;26.00;;;;;;;5.71;100.00;100207.38;5090663;28;20285;-50
2022/03/17 01:08:54;;;;;;;43.47;26.73;;;;;;;5.62;100.00;100209.94;5090420;28;20286;-48
2022/03/17 01:11:22;;;;;;;39.43;25.60;;;;;;;5.67;100.00;100215.94;5090351;28;20199;-49
2022/03/17 01:13:48;;;;;;;40.90;26.37;;;;;;;5.70;100.00;100218.53;5090323;28;20195;-49
2022/03/17 01:16:16;;;;;;;46.80;29.70;;;;;;;5.68;100.00;100221.94;5090143;28;20196;-48
2022/03/17 01:18:43;;;;;;;46.00;28.43;;;;;;;5.57;100.00;100218.47;5090260;28;20274;-49
2022/03/17 01:21:11;;;;;;;48.67;29.43;;;;;;;5.54;100.00;100218.47;5090236;28;20199;-49
2022/03/17 01:23:38;;;;;;;43.73;26.80;;;;;;;5.60;100.00;100231.38;5090408;28;20671;-49
2022/03/17 01:26:05;;;;;;;48.80;31.07;;;;;;;5.61;100.00;100233.97;5090313;28;20230;-49
2022/03/17 01:28:32;;;;;;;46.83;30.67;;;;;;;5.63;100.00;100231.38;5090136;28;20282;-49
2022/03/17 01:30:59;;;;;;;49.67;31.47;;;;;;;5.58;100.00;100227.94;5089961;28;20198;-50
2022/03/17 01:33:26;;;;;;;48.57;29.93;;;;;;;5.62;100.00;100227.09;5090198;28;20197;-49
2022/03/17 01:35:52;;;;;;;52.83;32.37;;;;;;;5.54;100.00;100237.34;5090067;28;20202;-50
2022/03/17 01:38:21;;;;;;;48.40;31.20;;;;;;;5.60;100.00;100228.78;5090201;28;20722;-47
2022/03/17 01:40:48;;;;;;;47.27;30.80;;;;;;;5.44;100.00;100228.75;5090142;28;20209;-49
2022/03/17 01:43:14;;;;;;;49.20;29.80;;;;;;;5.61;100.00;100223.66;5089941;28;20716;-49
2022/03/17 01:45:41;;;;;;;52.90;32.77;;;;;;;5.56;100.00;100230.50;5090246;28;20570;-51
2022/03/17 01:48:08;;;;;;;48.63;29.97;;;;;;;5.59;100.00;100242.53;5090052;28;20191;-50
2022/03/17 01:50:35;;;;;;;51.60;32.73;;;;;;;5.45;100.00;100242.47;5090164;28;20200;-51
2022/03/17 01:53:02;;;;;;;51.87;33.03;;;;;;;5.48;100.00;100245.06;5090261;28;20217;-50
2022/03/17 01:55:31;;;;;;;52.27;33.90;;;;;;;5.56;100.00;100245.94;5089941;28;20209;-50
2022/03/17 01:57:58;;;;;;;51.27;33.57;;;;;;;5.39;100.00;100240.75;5089631;28;20199;-49
2022/03/17 02:00:25;;;;;;;61.77;34.83;;;;;;;5.44;100.00;100246.75;5089616;28;20201;-50
2022/03/17 02:02:53;;;;;;;53.83;34.07;;;;;;;5.47;100.00;100251.94;5089831;28;20206;-49
2022/03/17 02:05:21;;;;;;;61.13;35.90;;;;;;;5.45;100.00;100247.63;5089718;28;20294;-50
2022/03/17 02:07:50;;;;;;;57.77;36.97;;;;;;;5.34;100.00;100237.28;5089653;28;20200;-49
2022/03/17 02:10:17;;;;;;;62.27;37.50;;;;;;;5.31;100.00;100241.56;5089613;28;20681;-49
2022/03/17 02:15:32;;;;;;;71.03;40.33;;;;;;;5.39;100.00;100245.91;5089896;28;20210;-50
2022/03/17 02:17:59;;;;;;;66.37;39.43;;;;;;;5.37;100.00;100249.31;5089469;28;20199;-50
2022/03/17 02:20:26;;;;;;;66.17;37.27;;;;;;;5.43;100.00;100254.47;5089655;28;20196;-49
2022/03/17 02:22:54;;;;;;;65.30;38.43;;;;;;;5.37;100.00;100249.31;5089541;28;20700;-50
2022/03/17 02:25:36;;;;;;;58.83;34.47;;;;;;;5.42;100.00;100247.59;5089655;28;20762;-50
2022/03/17 02:28:04;;;;;;;65.77;38.93;;;;;;;5.24;100.00;100260.41;5089577;28;20221;-49
2022/03/17 02:30:34;;;;;;;65.50;40.73;;;;;;;5.21;100.00;100258.69;5091166;28;20672;-49
2022/03/17 02:33:04;;;;;;;61.07;36.13;;;;;;;5.39;100.00;100252.78;5093591;28;20234;-50
2022/03/17 02:35:32;;;;;;;61.07;35.47;;;;;;;5.41;100.00;100261.38;5093206;28;20195;-50
2022/03/17 02:38:02;;;;;;;56.40;35.73;;;;;;;5.29;100.00;100267.31;5093443;28;20625;-50
2022/03/17 02:40:30;;;;;;;57.63;33.47;;;;;;;5.35;100.00;100263.91;5093493;28;20730;-49
2022/03/17 02:42:58;;;;;;;49.47;29.57;;;;;;;5.39;100.00;100274.22;5093078;28;20199;-50
2022/03/17 02:45:25;;;;;;;54.03;31.30;;;;;;;5.42;100.00;100289.66;5093198;28;20195;-51
2022/03/17 02:47:52;;;;;;;49.13;31.00;;;;;;;5.39;100.00;100293.97;5093061;28;20195;-51
2022/03/17 02:50:19;;;;;;;50.13;32.17;;;;;;;5.38;100.00;100302.53;5093167;28;20210;-50
2022/03/17 02:52:46;;;;;;;49.63;31.63;;;;;;;5.47;100.00;100312.88;5093113;28;20583;-48
2022/03/17 02:55:14;;;;;;;54.87;31.67;;;;;;;5.51;100.00;100318.91;5093301;28;20195;-50
2022/03/17 02:57:44;;;;;;;48.93;31.37;;;;;;;5.36;100.00;100312.81;5093048;28;20199;-49
2022/03/17 03:00:13;;;;;;;48.80;31.17;;;;;;;5.34;100.00;100317.09;5092752;28;20226;-49
2022/03/17 03:02:41;;;;;;;48.60;31.10;;;;;;;5.50;100.00;100302.59;5092985;28;20195;-49
2022/03/17 03:05:08;;;;;;;47.30;31.30;;;;;;;5.47;100.00;100307.72;5093105;28;20675;-50
2022/03/17 03:07:36;;;;;;;50.33;31.53;;;;;;;5.39;100.00;100299.97;5092794;28;20204;-50
2022/03/17 03:10:04;;;;;;;49.10;29.57;;;;;;;5.45;100.00;100307.69;5092736;28;20719;-50
2022/03/17 03:12:31;;;;;;;50.47;31.13;;;;;;;5.62;100.00;100312.06;5092665;28;20187;-50
2022/03/17 03:14:59;;;;;;;48.97;30.43;;;;;;;5.57;100.00;100322.34;5092446;28;20210;-50
2022/03/17 03:17:26;;;;;;;49.53;30.93;;;;;;;5.57;100.00;100327.50;5092567;28;20221;-50
2022/03/17 03:19:53;;;;;;;49.10;30.43;;;;;;;5.62;100.00;100325.81;5092515;28;20229;-50
2022/03/17 03:22:20;;;;;;;46.40;30.47;;;;;;;5.70;100.00;100331.00;5092512;28;20624;-50
2022/03/17 03:24:47;;;;;;;50.13;31.33;;;;;;;5.59;100.00;100323.22;5092240;28;20230;-49
2022/03/17 03:27:14;;;;;;;46.27;29.97;;;;;;;5.58;100.00;100323.22;5092423;28;20217;-49
2022/03/17 03:29:41;;;;;;;50.90;31.83;;;;;;;5.52;100.00;100321.47;5092471;28;20191;-51
2022/03/17 03:32:10;;;;;;;48.07;30.93;;;;;;;5.61;100.00;100326.66;5092492;28;20201;-50
2022/03/17 03:34:37;;;;;;;45.97;29.80;;;;;;;5.66;100.00;100322.38;5092364;28;20192;-50
2022/03/17 03:39:48;;;;;;;40.83;28.27;;;;;;;5.69;100.00;100330.13;5092129;28;20592;-51
2022/03/17 03:42:15;;;;;;;46.47;29.77;;;;;;;5.81;100.00;100345.63;5091147;28;20195;-49
2022/03/17 03:44:43;;;;;;;44.97;29.03;;;;;;;5.87;100.00;100349.09;5092179;28;20203;-50
2022/03/17 03:47:11;;;;;;;42.07;28.03;;;;;;;5.86;100.00;100347.38;5092094;28;20197;-50
2022/03/17 03:49:42;;;;;;;41.70;27.83;;;;;;;5.91;100.00;100350.84;5092047;28;20191;-50
2022/03/17 03:52:11;;;;;;;39.83;27.60;;;;;;;6.10;100.00;100362.91;5091975;28;20659;-49
2022/03/17 03:54:38;;;;;;;40.13;27.37;;;;;;;6.11;100.00;100359.47;5091854;28;20191;-51
2022/03/17 03:57:06;;;;;;;43.03;28.00;;;;;;;5.96;100.00;100367.19;5091784;28;20221;-50
2022/03/17 03:59:33;;;;;;;43.33;29.67;;;;;;;5.81;100.00;100358.50;5091569;28;20223;-50
2022/03/17 04:02:02;;;;;;;45.67;29.63;;;;;;;6.03;100.00;100358.63;5091437;28;20589;-51
2022/03/17 04:04:31;;;;;;;41.10;27.77;;;;;;;5.98;100.00;100362.91;5091680;28;20249;-51
2022/03/17 04:07:01;;;;;;;45.13;28.07;;;;;;;6.01;100.00;100375.78;5091092;28;20686;-49
2022/03/17 04:09:30;;;;;;;40.07;27.33;;;;;;;6.09;100.00;100387.00;5091375;28;20274;-50
2022/03/17 04:11:57;;;;;;;41.70;26.17;;;;;;;6.21;100.00;100381.84;5091320;28;20192;-50
2022/03/17 04:14:24;;;;;;;39.67;26.80;;;;;;;6.00;100.00;100381.78;5091529;28;20202;-50
2022/03/17 04:16:52;;;;;;;35.53;24.77;;;;;;;5.98;100.00;100384.34;5091213;28;20667;-49
2022/03/17 04:19:19;;;;;;;39.07;24.97;;;;;;;6.09;100.00;100393.00;5090979;28;20219;-50
2022/03/17 04:21:49;;;;;;;33.67;24.07;;;;;;;5.93;100.00;100360.31;5091079;28;20286;-50
2022/03/17 04:24:17;;;;;;;30.07;21.33;;;;;;;6.04;100.00;100378.38;5091360;28;20195;-49
2022/03/17 04:26:44;;;;;;;34.97;23.53;;;;;;;6.05;100.00;100396.44;5091324;28;20199;-49
2022/03/17 04:29:11;;;;;;;32.83;22.73;;;;;;;6.13;100.00;100397.31;5081780;28;20242;-49
2022/03/17 04:31:39;;;;;;;29.60;20.43;;;;;;;6.24;100.00;100402.50;5088786;28;20195;-50
2022/03/17 04:34:06;;;;;;;26.13;18.03;;;;;;;6.23;100.00;100405.06;5081340;28;20213;-49
2022/03/17 04:36:34;;;;;;;24.20;18.00;;;;;;;6.18;100.00;100407.63;5071819;28;20239;-50
2022/03/17 04:39:04;;;;;;;30.33;20.07;;;;;;;6.19;100.00;100419.69;5070149;28;20310;-48
2022/03/17 04:41:31;;;;;;;26.77;17.50;;;;;;;6.25;100.00;100418.81;5087580;28;20199;-49
2022/03/17 04:43:58;;;;;;;28.53;19.70;;;;;;;6.14;100.00;100431.69;5087189;28;20681;-49
2022/03/17 04:46:25;;;;;;;25.90;18.73;;;;;;;6.26;100.00;100421.41;5089289;28;20234;-49
2022/03/17 04:48:52;;;;;;;26.97;18.23;;;;;;;6.21;100.00;100427.41;5089228;28;20210;-50
2022/03/17 04:51:19;;;;;;;24.67;18.23;;;;;;;6.29;100.00;100430.88;5090163;28;20191;-50
2022/03/17 04:53:46;;;;;;;28.93;20.10;;;;;;;6.29;100.00;100430.88;5089536;28;20203;-49
2022/03/17 04:56:16;;;;;;;28.63;20.37;;;;;;;6.41;100.00;100434.34;5090576;28;20599;-49
2022/03/17 04:58:43;;;;;;;28.63;19.60;;;;;;;6.44;100.00;100442.06;5085268;28;20199;-49
2022/03/17 05:01:12;;;;;;;25.77;18.50;;;;;;;6.46;100.00;100448.09;5087705;28;20584;-49
2022/03/17 05:03:39;;;;;;;23.33;18.03;;;;;;;6.37;100.00;100439.47;5089789;28;20282;-48
2022/03/17 05:06:06;;;;;;;26.20;17.43;;;;;;;6.26;100.00;100451.47;5090116;28;20693;-49
2022/03/17 05:08:35;;;;;;;26.40;19.07;;;;;;;6.34;100.00;100455.81;5089865;28;20798;-49
2022/03/17 05:11:03;;;;;;;26.70;19.97;;;;;;;6.04;100.00;100437.66;5089703;28;20195;-49
2022/03/17 05:13:32;;;;;;;28.17;20.73;;;;;;;6.26;100.00;100467.81;5089375;28;20199;-50
2022/03/17 05:15:59;;;;;;;27.70;20.30;;;;;;;6.36;100.00;100461.84;5087382;28;20196;-49
2022/03/17 05:18:27;;;;;;;30.30;20.87;;;;;;;6.48;100.00;100459.28;5083682;28;20192;-51
2022/03/17 05:20:53;;;;;;;29.57;21.23;;;;;;;6.35;100.00;100467.84;5080812;28;20230;-48
2022/03/17 05:23:22;;;;;;;29.53;21.00;;;;;;;6.45;100.00;100467.00;5081380;28;21286;-50
2022/03/17 05:25:50;;;;;;;29.40;20.87;;;;;;;6.43;100.00;100470.47;5082160;28;20224;-50
2022/03/17 05:28:18;;;;;;;33.17;22.13;;;;;;;6.50;100.00;100477.34;5078367;28;20575;-50
2022/03/17 05:30:47;;;;;;;35.93;25.20;;;;;;;6.41;100.00;100483.34;5080616;28;20615;-48
2022/03/17 05:33:14;;;;;;;43.77;28.13;;;;;;;6.35;100.00;100482.44;5080321;28;20727;-53
2022/03/17 05:35:42;;;;;;;55.77;32.37;;;;;;;6.62;100.00;100473.94;5076901;28;20227;-49
2022/03/17 05:38:10;;;;;;;49.17;31.17;;;;;;;6.59;100.00;100481.66;5075401;28;20606;-50
2022/03/17 05:40:37;;;;;;;43.90;29.13;;;;;;;6.56;100.00;100472.19;5079552;28;20247;-50
2022/03/17 05:43:07;;;;;;;45.60;28.60;;;;;;;6.56;100.00;100483.38;5069138;28;20212;-50
2022/03/17 05:45:35;;;;;;;44.87;29.63;;;;;;;6.60;100.00;100488.56;5069508;28;20277;-48
2022/03/17 05:48:05;;;;;;;42.00;27.70;;;;;;;6.57;100.00;100495.41;5069350;28;20657;-50
2022/03/17 05:50:34;;;;;;;41.70;26.60;;;;;;;6.57;100.00;100499.72;5069446;28;20220;-50
2022/03/17 05:53:01;;;;;;;40.77;25.43;;;;;;;6.59;100.00;100505.75;5079935;28;20294;-49
2022/03/17 05:55:28;;;;;;;38.17;25.53;;;;;;;6.61;100.00;100505.75;5085973;28;20223;-50
2022/03/17 05:57:57;;;;;;;34.17;24.53;;;;;;;6.59;100.00;100502.31;5079878;28;20227;-50
2022/03/17 06:00:26;;;;;;;36.40;26.47;;;;;;;6.60;100.00;100509.19;5081885;28;20254;-51
2022/03/17 06:02:54;;;;;;;37.73;25.53;;;;;;;6.68;100.00;100512.66;5082124;28;20699;-51
2022/03/17 06:05:23;;;;;;;38.97;26.80;;;;;;;6.71;100.00;100518.69;5081048;28;20225;-50
2022/03/17 06:07:51;;;;;;;43.20;28.87;;;;;;;6.70;100.00;100522.13;5087464;28;20260;-50
2022/03/17 06:10:21;;;;;;;40.10;28.20;;;;;;;6.66;100.00;100533.28;5087984;28;20215;-51
2022/03/17 06:12:51;;;;;;;42.60;28.93;;;;;;;6.68;100.00;100533.28;5072677;28;20219;-50
2022/03/17 06:15:19;;;;;;;43.20;30.10;;;;;;;6.71;100.00;100541.03;5072836;28;20230;-51
2022/03/17 06:17:48;;;;;;;45.03;31.23;;;;;;;6.70;100.00;100541.91;5072537;28;20227;-50
2022/03/17 06:20:18;;;;;;;46.50;30.80;;;;;;;6.78;100.00;100550.50;5072441;28;20690;-50
2022/03/17 06:22:48;;;;;;;45.37;31.97;;;;;;;6.78;100.00;100551.38;5072086;28;20219;-50
2022/03/17 06:25:19;;;;;;;44.50;27.30;;;;;;;6.48;100.00;100551.28;5089541;28;20317;-50
2022/03/17 06:27:47;;;;;;;41.47;28.13;;;;;;;6.50;100.00;100565.91;5092052;28;20223;-50
2022/03/17 06:30:16;;;;;;;47.90;29.53;;;;;;;6.53;100.00;100565.94;5090464;28;20223;-50
2022/03/17 06:32:44;;;;;;;45.10;30.07;;;;;;;6.55;100.00;100577.09;5092470;28;20227;-49
2022/03/17 06:35:14;;;;;;;44.17;30.43;;;;;;;6.51;100.00;100579.66;5093086;28;20219;-49
2022/03/17 06:37:41;;;;;;;47.40;32.40;;;;;;;6.53;100.00;100590.84;5092843;28;20223;-50
2022/03/17 06:40:11;;;;;;;48.67;32.47;;;;;;;6.47;100.00;100576.19;5091375;28;20223;-50
2022/03/17 06:42:38;;;;;;;43.73;29.90;;;;;;;6.64;100.00;100598.66;5092254;28;20223;-50
2022/03/17 06:45:07;;;;;;;42.83;27.60;;;;;;;6.56;100.00;100606.31;5091736;28;20223;-50
2022/03/17 06:47:33;;;;;;;43.57;28.33;;;;;;;6.39;100.00;100585.63;5092547;28;20231;-49
2022/03/17 06:50:00;;;;;;;38.60;25.87;;;;;;;6.51;100.00;100606.31;5092286;28;20226;-49
2022/03/17 06:52:27;;;;;;;40.73;27.20;;;;;;;6.38;100.00;100617.41;5092111;28;20258;-48
2022/03/17 06:54:54;;;;;;;40.23;25.97;;;;;;;6.29;100.00;100626.81;5091404;28;20218;-48
2022/03/17 06:57:24;;;;;;;38.47;25.63;;;;;;;6.37;100.00;100625.16;5092709;28;20270;-48
2022/03/17 06:59:52;;;;;;;39.93;26.33;;;;;;;6.32;100.00;100624.28;5092118;28;20231;-49
2022/03/17 07:02:19;;;;;;;40.13;27.43;;;;;;;6.40;100.00;100631.19;5092711;28;20219;-50
2022/03/17 07:04:46;;;;;;;40.03;27.17;;;;;;;6.45;100.00;100637.22;5091761;28;20223;-50
2022/03/17 07:07:14;;;;;;;40.93;27.63;;;;;;;6.38;100.00;100632.03;5091756;28;20219;-50
2022/03/17 07:09:42;;;;;;;54.10;29.50;;;;;;;6.42;100.00;100632.06;5092195;28;20227;-50
2022/03/17 07:12:10;;;;;;;43.30;26.10;;;;;;;6.40;100.00;100630.31;5083112;28;20230;-50
2022/03/17 07:14:39;;;;;;;51.33;30.50;;;;;;;6.40;100.00;100644.09;5087862;28;20229;-50
2022/03/17 07:17:06;;;;;;;42.23;25.00;;;;;;;6.43;100.00;100638.94;5090629;28;20770;-49
2022/03/17 07:19:33;;;;;;;60.50;35.97;;;;;;;6.43;100.00;100646.66;5091798;28;20600;-49
2022/03/17 07:22:00;;;;;;;57.47;32.57;;;;;;;6.49;100.00;100646.72;5092028;28;20286;-50
2022/03/17 07:24:27;;;;;;;55.97;32.80;;;;;;;6.43;100.00;100646.66;5089033;28;20272;-51
2022/03/17 07:26:54;;;;;;;42.30;26.43;;;;;;;6.55;100.00;100651.88;5084555;28;20622;-49
2022/03/17 07:29:20;;;;;;;36.83;22.83;;;;;;;6.58;100.00;100651.06;5091373;28;20310;-49
2022/03/17 07:31:49;;;;;;;40.93;24.50;;;;;;;6.58;100.00;100663.94;5086768;28;20223;-49
2022/03/17 07:34:17;;;;;;;40.13;25.17;;;;;;;6.55;100.00;100663.91;5092936;28;20261;-50
2022/03/17 07:36:44;;;;;;;42.37;25.57;;;;;;;6.64;100.00;100661.44;5079922;28;20227;-50
2022/03/17 07:39:11;;;;;;;43.47;25.37;;;;;;;6.65;100.00;100664.88;5087529;28;20636;-51
2022/03/17 07:41:38;;;;;;;40.87;23.50;;;;;;;6.71;100.00;100677.78;5078105;28;20223;-49
2022/03/17 07:44:06;;;;;;;41.57;23.23;;;;;;;6.69;100.00;100677.78;5081122;28;20605;-50
2022/03/17 07:46:33;;;;;;;38.50;23.93;;;;;;;6.70;100.00;100679.50;5075823;28;20223;-49
2022/03/17 07:49:01;;;;;;;37.57;23.17;;;;;;;6.84;100.00;100682.16;5070747;28;20616;-48
2022/03/17 07:51:30;;;;;;;62.07;33.50;;;;;;;6.92;100.00;100685.63;5073010;28;20303;-48
2022/03/17 07:53:56;;;;;;;56.23;32.20;;;;;;;6.83;100.00;100686.47;5081675;28;20215;-48
2022/03/17 07:56:24;;;;;;;42.57;24.37;;;;;;;7.00;100.00;100690.84;5088973;28;20687;-49
2022/03/17 07:58:51;;;;;;;40.03;24.40;;;;;;;7.07;100.00;100700.34;5091385;28;20219;-48
2022/03/17 08:01:18;;;;;;;37.23;22.30;;;;;;;7.00;100.00;100691.69;5089399;28;20223;-48
2022/03/17 08:03:45;;;;;;;40.27;24.17;;;;;;;7.01;100.00;100698.56;5090466;28;20599;-49
2022/03/17 08:06:14;;;;;;;35.23;22.53;;;;;;;7.11;100.00;100705.50;5090343;28;20201;-49
2022/03/17 08:08:41;;;;;;;39.87;24.73;;;;;;;7.16;100.00;100706.41;5078011;28;20196;-48
2022/03/17 08:11:08;;;;;;;41.37;24.27;;;;;;;7.06;100.00;100712.38;5075847;28;20192;-48
2022/03/17 08:13:35;;;;;;;44.77;25.90;;;;;;;7.21;100.00;100704.72;5083259;28;20219;-49
2022/03/17 08:16:02;;;;;;;43.67;26.80;;;;;;;7.27;100.00;100712.47;5085030;28;20621;-49
2022/03/17 08:18:30;;;;;;;50.17;28.27;;;;;;;7.37;100.00;100717.66;5087797;28;20227;-49
2022/03/17 08:20:57;;;;;;;44.47;25.87;;;;;;;7.18;100.00;100722.75;5083303;28;20280;-48
2022/03/17 08:23:25;;;;;;;43.97;25.83;;;;;;;7.28;100.00;100724.53;5088434;28;20253;-48
2022/03/17 08:25:52;;;;;;;39.97;25.80;;;;;;;7.25;100.00;100724.50;5069950;28;20628;-48
2022/03/17 08:28:20;;;;;;;38.03;23.87;;;;;;;7.24;100.00;100733.09;5075952;28;20616;-48
2022/03/17 08:30:47;;;;;;;36.77;24.40;;;;;;;6.97;100.00;100696.84;5090059;28;20215;-49
2022/03/17 08:33:15;;;;;;;43.07;25.13;;;;;;;7.22;100.00;100714.16;5089662;28;20215;-49
2022/03/17 08:35:42;;;;;;;40.30;21.83;;;;;;;7.19;100.00;100724.50;5089784;28;20219;-49
2022/03/17 08:38:09;;;;;;;45.67;27.67;;;;;;;7.16;100.00;100721.88;5088914;28;20309;-49
2022/03/17 08:40:40;;;;;;;44.80;25.23;;;;;;;7.17;100.00;100723.63;5088614;28;20596;-49
2022/03/17 08:43:08;;;;;;;42.33;26.17;;;;;;;7.36;100.00;100719.38;5083562;28;20637;-48
2022/03/17 08:51:00;;;;;;;47.17;28.40;;;;;;;7.24;100.00;100727.94;5074317;28;20296;-48
2022/03/17 08:53:27;;;;;;;54.87;32.73;;;;;;;7.41;100.00;100732.31;5085127;28;20223;-49
2022/03/17 08:55:55;;;;;;;45.33;27.50;;;;;;;7.40;100.00;100730.59;5085636;28;20211;-48
2022/03/17 08:58:23;;;;;;;48.17;26.57;;;;;;;7.44;100.00;100734.91;5090002;28;20225;-49
2022/03/17 09:00:50;;;;;;;49.00;28.17;;;;;;;7.54;100.00;100737.53;5089438;28;20670;-49
2022/03/17 09:03:18;;;;;;;48.23;29.17;;;;;;;7.77;100.00;100731.56;5089728;28;20219;-51
2022/03/17 09:05:45;;;;;;;54.50;29.73;;;;;;;7.80;100.00;100737.56;5086209;28;20223;-51
2022/03/17 09:08:12;;;;;;;47.60;28.50;;;;;;;7.75;100.00;100741.88;5088932;28;20293;-50
2022/03/17 09:10:40;;;;;;;52.77;29.10;;;;;;;7.90;100.00;100735.91;5089411;28;20193;-49
2022/03/17 09:13:09;;;;;;;47.70;29.53;;;;;;;7.99;100.00;100723.84;5070890;28;20586;-47
2022/03/17 09:15:38;;;;;;;49.23;31.27;;;;;;;8.10;100.00;100743.66;5070083;28;20676;-48
2022/03/17 09:18:07;;;;;;;47.33;29.10;;;;;;;7.96;100.00;100720.38;5070130;28;20202;-49
2022/03/17 09:20:34;;;;;;;45.67;27.27;;;;;;;8.20;100.00;100745.41;5071967;28;20313;-51
2022/03/17 09:23:02;;;;;;;56.63;28.80;;;;;;;8.09;100.00;100758.31;5089575;28;20533;-48
2022/03/17 09:25:31;;;;;;;45.53;28.87;;;;;;;7.89;100.00;100750.53;5089480;28;20239;-49
2022/03/17 09:27:58;;;;;;;45.27;27.37;;;;;;;7.91;100.00;100753.97;5089116;28;20622;-49
2022/03/17 09:30:26;;;;;;;48.17;27.90;;;;;;;7.67;100.00;100746.19;5090167;28;20215;-49
2022/03/17 09:32:54;;;;;;;46.33;27.00;;;;;;;7.71;100.00;100759.97;5089597;28;20221;-49
2022/03/17 09:35:21;;;;;;;47.00;28.07;;;;;;;7.53;100.00;100766.81;5089298;28;20298;-50
2022/03/17 09:37:49;;;;;;;46.50;28.00;;;;;;;7.56;100.00;100763.38;5089533;28;20219;-49
2022/03/17 09:40:16;;;;;;;45.63;26.13;;;;;;;7.54;100.00;100754.75;5090476;28;20219;-49
2022/03/17 09:42:43;;;;;;;49.10;29.07;;;;;;;7.57;100.00;100768.53;5093518;28;20609;-49
2022/03/17 09:45:12;;;;;;;46.13;28.03;;;;;;;7.64;100.00;100772.88;5093294;28;20231;-49
2022/03/17 09:47:42;;;;;;;47.23;27.57;;;;;;;7.55;100.00;100774.56;5093579;28;20219;-49
2022/03/17 09:50:14;;;;;;;47.50;28.00;;;;;;;7.66;100.00;100767.72;5093016;28;20226;-49
2022/03/17 09:52:42;;;;;;;44.90;24.70;;;;;;;7.63;100.00;100778.91;5093423;28;20222;-50
2022/03/17 09:55:10;;;;;;;49.10;28.90;;;;;;;7.47;100.00;100773.66;5093245;28;20222;-48
2022/03/17 09:57:38;;;;;;;56.73;30.60;;;;;;;7.47;100.00;100781.41;5093693;28;20296;-49
2022/03/17 10:00:07;;;;;;;52.90;31.10;;;;;;;7.60;100.00;100778.00;5093322;28;20698;-50
2022/03/17 10:02:35;;;;;;;78.60;38.33;;;;;;;7.65;100.00;100781.50;5093417;28;20233;-50
2022/03/17 10:05:04;;;;;;;60.33;33.33;;;;;;;7.64;100.00;100780.63;5092603;28;20219;-49
2022/03/17 10:07:34;;;;;;;62.83;35.50;;;;;;;7.60;100.00;100776.28;5093116;28;20231;-49
2022/03/17 10:10:02;;;;;;;57.20;34.37;;;;;;;7.80;100.00;100776.34;5092928;28;20250;-49
2022/03/17 10:12:30;;;;;;;56.57;33.97;;;;;;;7.83;100.00;100780.66;5093465;28;20216;-50
2022/03/17 10:14:57;;;;;;;51.63;30.60;;;;;;;7.86;100.00;100771.22;5093211;28;20718;-50
2022/03/17 10:17:32;;;;;;;55.03;31.83;;;;;;;7.90;100.00;100777.25;5093296;28;20223;-48
2022/03/17 10:20:15;;;;;;;58.97;31.47;;;;;;;8.17;100.00;100776.41;5092301;28;20221;-50
2022/03/17 10:22:44;;;;;;;46.80;28.67;;;;;;;8.21;100.00;100783.34;5092911;28;20230;-50
2022/03/17 10:25:14;;;;;;;52.50;30.00;;;;;;;8.17;100.00;100786.75;5092728;28;20234;-49
2022/03/17 10:27:45;;;;;;;52.67;29.87;;;;;;;8.06;100.00;100773.81;5092841;28;20215;-50
2022/03/17 10:30:13;;;;;;;50.33;30.07;;;;;;;8.25;100.00;100782.47;5092818;28;20219;-51
2022/03/17 10:32:40;;;;;;;50.23;28.83;;;;;;;8.12;100.00;100779.03;5092870;28;20222;-49
2022/03/17 10:35:12;;;;;;;54.90;31.10;;;;;;;8.21;100.00;100785.91;5092306;28;20222;-49
2022/03/17 10:37:39;;;;;;;44.53;27.10;;;;;;;7.77;100.00;100778.94;5092797;28;20245;-49
2022/03/17 10:40:11;;;;;;;41.33;25.57;;;;;;;7.97;100.00;100784.16;5092790;28;20629;-48
2022/03/17 10:42:39;;;;;;;52.07;28.93;;;;;;;7.98;100.00;100780.72;5092703;28;20231;-49
2022/03/17 10:45:08;;;;;;;45.27;27.37;;;;;;;8.05;100.00;100771.22;5092480;28;20222;-49
2022/03/17 10:47:36;;;;;;;50.90;28.47;;;;;;;8.25;100.00;100787.63;5092834;28;20219;-49
2022/03/17 10:50:10;;;;;;;37.43;25.17;;;;;;;8.35;100.00;100797.19;5092090;28;20219;-49
2022/03/17 10:52:47;;;;;;;40.13;25.73;;;;;;;8.25;100.00;100795.38;5092097;28;20225;-49
2022/03/17 10:55:14;;;;;;;47.53;27.70;;;;;;;8.25;100.00;100790.22;5092523;28;20225;-49
2022/03/17 10:57:42;;;;;;;42.00;25.13;;;;;;;8.36;100.00;100793.72;5092315;28;20314;-49
2022/03/17 11:00:20;;;;;;;41.03;25.13;;;;;;;8.20;100.00;100786.78;5091747;28;20445;-49
2022/03/17 11:02:49;;;;;;;46.70;26.37;;;;;;;8.06;100.00;100793.66;5091832;28;20222;-49
2022/03/17 11:05:18;;;;;;;39.13;24.23;;;;;;;7.98;100.00;100791.06;5092631;28;20214;-49
2022/03/17 11:07:47;;;;;;;38.67;24.77;;;;;;;8.22;100.00;100787.66;5092288;28;20191;-49
2022/03/17 11:10:18;;;;;;;39.00;24.33;;;;;;;8.19;100.00;100760.06;5091768;28;20200;-49
2022/03/17 11:12:45;;;;;;;43.63;24.90;;;;;;;8.36;100.00;100778.19;5092207;28;20191;-49
2022/03/17 11:15:13;;;;;;;45.27;26.77;;;;;;;8.35;100.00;100777.31;5092576;28;20278;-49
2022/03/17 11:17:46;;;;;;;42.23;26.73;;;;;;;8.66;100.00;100780.78;5092647;28;20610;-48
2022/03/17 11:20:18;;;;;;;51.97;28.70;;;;;;;8.71;100.00;100770.41;5091404;28;20561;-49
2022/03/17 11:23:05;;;;;;;39.90;24.67;;;;;;;8.91;100.00;100773.00;5078366;28;20211;-49